Time;durP1;ratioP1;P1;durP2;ratioP2;P2;SDS_P1;SDS_P2;PMS_P1;PMS_P2;Temp;Humidity;BMP_temperature;BMP_pressure;BME280_temperature;BME280_humidity;BME280_pressure;Samples;Min_cycle;Max_cycle;Signal;HPM_P1;HPM_P2
2022/03/30 00:02:09;;;;;;;4.70;2.67;;;;;;;2.23;100.00;100621.16;6279123;28;20045;-77
2022/03/30 00:05:12;;;;;;;9.48;2.95;;;;;;;2.24;100.00;100625.44;6289948;28;20052;-77
2022/03/30 00:08:13;;;;;;;8.32;2.60;;;;;;;2.18;100.00;100617.81;6298335;28;20048;-76
2022/03/30 00:11:14;;;;;;;6.75;2.45;;;;;;;2.17;100.00;100620.41;6297573;28;20048;-76
2022/03/30 00:14:16;;;;;;;10.38;3.17;;;;;;;2.14;100.00;100610.97;6298305;28;20049;-76
2022/03/30 00:17:17;;;;;;;2.80;1.50;;;;;;;2.11;100.00;100621.41;6297527;28;20044;-76
2022/03/30 00:20:20;;;;;;;4.65;2.50;;;;;;;2.06;100.00;100612.88;6277679;28;20056;-77
2022/03/30 00:23:22;;;;;;;4.97;2.03;;;;;;;2.00;100.00;100618.19;6273983;28;20044;-76
2022/03/30 00:26:23;;;;;;;5.80;2.63;;;;;;;1.96;100.00;100606.19;6272920;28;20431;-77
2022/03/30 00:29:24;;;;;;;6.95;2.15;;;;;;;1.92;100.00;100601.94;6281049;28;20052;-76
2022/03/30 00:32:26;;;;;;;6.22;2.20;;;;;;;1.88;100.00;100602.88;6271906;28;20404;-75
2022/03/30 00:35:29;;;;;;;7.80;2.40;;;;;;;1.84;100.00;100609.84;6272722;28;20052;-76
2022/03/30 00:38:30;;;;;;;4.18;2.00;;;;;;;1.85;100.00;100603.78;6282226;28;20052;-76
2022/03/30 00:41:31;;;;;;;4.10;1.73;;;;;;;1.80;100.00;100607.34;6296782;28;20048;-76
2022/03/30 00:44:33;;;;;;;3.00;1.52;;;;;;;1.72;100.00;100602.31;6295016;28;20631;-76
2022/03/30 00:47:34;;;;;;;3.83;1.42;;;;;;;1.65;100.00;100604.19;6288874;28;20048;-76
2022/03/30 00:50:37;;;;;;;4.15;2.30;;;;;;;1.62;100.00;100599.06;6295546;28;20067;-76
2022/03/30 00:53:39;;;;;;;6.60;1.92;;;;;;;1.63;100.00;100594.72;6297056;28;20166;-76
2022/03/30 00:56:43;;;;;;;1.73;0.95;;;;;;;1.58;100.00;100589.63;6297390;28;20052;-77
2022/03/30 00:59:45;;;;;;;2.40;1.73;;;;;;;1.56;100.00;100585.38;6296780;28;20392;-76
2022/03/30 01:02:49;;;;;;;4.95;1.75;;;;;;;1.56;100.00;100585.38;6297006;28;20052;-76
2022/03/30 01:05:51;;;;;;;4.38;2.28;;;;;;;1.55;100.00;100584.53;6296908;28;20053;-76
2022/03/30 01:08:52;;;;;;;3.25;2.13;;;;;;;1.53;100.00;100581.94;6296922;28;20044;-76
2022/03/30 01:11:55;;;;;;;1.35;1.25;;;;;;;1.53;100.00;100579.34;6296183;28;20053;-76
2022/03/30 01:14:56;;;;;;;3.33;2.03;;;;;;;1.50;100.00;100582.03;6296722;28;20052;-76
2022/03/30 01:17:58;;;;;;;3.97;1.42;;;;;;;1.46;100.00;100582.97;6296821;28;20189;-76
2022/03/30 01:21:01;;;;;;;5.13;2.33;;;;;;;1.37;100.00;100580.53;6295820;28;20090;-76
2022/03/30 01:24:02;;;;;;;2.28;1.10;;;;;;;1.37;100.00;100572.78;6296739;28;20051;-76
2022/03/30 01:27:04;;;;;;;5.13;2.08;;;;;;;1.31;100.00;100565.09;6296486;28;20049;-75
2022/03/30 01:33:32;;;;;;;3.17;1.80;;;;;;;1.18;100.00;100555.84;6296572;28;20048;-76
2022/03/30 01:36:35;;;;;;;2.13;1.38;;;;;;;1.19;100.00;100544.63;6296465;28;20412;-76
2022/03/30 01:39:37;;;;;;;3.25;1.60;;;;;;;1.17;100.00;100549.81;6296113;28;20066;-77
2022/03/30 01:42:39;;;;;;;1.08;1.00;;;;;;;1.17;100.00;100548.97;6295767;28;20051;-76
2022/03/30 01:45:40;;;;;;;2.50;2.08;;;;;;;1.10;100.00;100539.63;6296433;28;20048;-76
2022/03/30 01:48:41;;;;;;;3.10;1.63;;;;;;;1.07;100.00;100535.34;6296409;28;20492;-76
2022/03/30 01:51:44;;;;;;;2.75;1.30;;;;;;;1.13;100.00;100527.47;6295737;28;20060;-75
2022/03/30 01:54:46;;;;;;;1.70;1.52;;;;;;;1.19;100.00;100527.38;6296398;28;20052;-76
2022/03/30 01:57:47;;;;;;;2.58;1.48;;;;;;;1.23;100.00;100520.41;6296087;28;20056;-76
2022/03/30 02:00:49;;;;;;;2.03;1.38;;;;;;;1.27;100.00;100522.91;6295448;28;20048;-76
2022/03/30 02:03:50;;;;;;;2.25;1.65;;;;;;;1.29;100.00;100516.84;6300769;28;20052;-76
2022/03/30 02:06:53;;;;;;;9.02;1.70;;;;;;;1.32;100.00;100516.78;6301172;28;20049;-76
2022/03/30 02:09:54;;;;;;;4.07;2.28;;;;;;;1.33;100.00;100508.16;6300909;28;20045;-76
2022/03/30 02:12:55;;;;;;;6.38;2.47;;;;;;;1.32;100.00;100507.28;6300765;28;20056;-76
2022/03/30 02:15:57;;;;;;;2.53;1.42;;;;;;;1.38;100.00;100503.72;6300844;28;20067;-75
2022/03/30 02:18:58;;;;;;;2.17;1.75;;;;;;;1.46;100.00;100514.78;6293750;28;20057;-75
2022/03/30 02:22:01;;;;;;;1.63;1.48;;;;;;;1.44;100.00;100507.03;6281952;28;20163;-75
2022/03/30 02:25:02;;;;;;;1.92;1.58;;;;;;;1.35;100.00;100503.78;6284201;28;20045;-76
2022/03/30 02:28:04;;;;;;;2.75;1.63;;;;;;;1.29;100.00;100506.50;6287576;28;20444;-76
2022/03/30 02:31:06;;;;;;;5.38;2.17;;;;;;;1.27;100.00;100494.44;6299841;28;20044;-76
2022/03/30 02:34:07;;;;;;;2.35;1.92;;;;;;;1.44;100.00;100501.84;6300694;28;20049;-77
2022/03/30 02:37:10;;;;;;;1.70;1.33;;;;;;;1.51;100.00;100494.84;6300465;28;20055;-76
2022/03/30 02:40:12;;;;;;;4.07;2.30;;;;;;;1.60;100.00;100489.47;6299896;28;20056;-76
2022/03/30 02:43:16;;;;;;;3.90;2.08;;;;;;;1.55;100.00;100503.41;6287698;28;20048;-76
2022/03/30 02:46:17;;;;;;;1.90;1.67;;;;;;;1.51;100.00;100497.44;6275143;28;20064;-75
2022/03/30 02:49:19;;;;;;;2.33;1.48;;;;;;;1.58;100.00;100493.81;6275713;28;20049;-76
2022/03/30 02:52:21;;;;;;;4.40;1.90;;;;;;;1.48;100.00;100497.47;6274601;28;20077;-76
2022/03/30 02:55:23;;;;;;;3.53;2.28;;;;;;;1.47;100.00;100496.63;6275019;28;20045;-76
2022/03/30 02:58:25;;;;;;;2.03;1.30;;;;;;;1.53;100.00;100491.31;6275154;28;20056;-76
2022/03/30 03:01:26;;;;;;;4.53;2.45;;;;;;;1.54;100.00;100484.41;6274775;28;20052;-76
2022/03/30 03:04:28;;;;;;;2.33;1.33;;;;;;;1.64;100.00;100482.50;6274852;28;20072;-76
2022/03/30 03:07:30;;;;;;;6.65;2.38;;;;;;;1.70;100.00;100472.00;6275339;28;20052;-77
2022/03/30 03:10:35;;;;;;;4.47;2.53;;;;;;;1.69;100.00;100471.16;6274313;28;20516;-76
2022/03/30 03:13:36;;;;;;;7.50;1.92;;;;;;;1.72;100.00;100476.25;6273505;28;20063;-76
2022/03/30 03:16:37;;;;;;;3.88;2.25;;;;;;;1.68;100.00;100469.44;6274769;28;20535;-77
2022/03/30 03:19:40;;;;;;;2.85;1.83;;;;;;;1.65;100.00;100458.28;6274308;28;20055;-77
2022/03/30 03:22:43;;;;;;;3.42;2.10;;;;;;;1.64;100.00;100464.38;6274198;28;20140;-76
2022/03/30 03:25:44;;;;;;;3.75;1.75;;;;;;;1.57;100.00;100460.19;6274339;28;20053;-75
2022/03/30 03:28:46;;;;;;;4.30;2.13;;;;;;;1.54;100.00;100450.72;6274148;28;20044;-76
2022/03/30 03:31:47;;;;;;;6.35;2.63;;;;;;;1.59;100.00;100440.28;6273616;28;20060;-77
2022/03/30 03:34:48;;;;;;;5.65;2.65;;;;;;;1.62;100.00;100441.06;6274382;28;20041;-76
2022/03/30 03:37:51;;;;;;;3.63;1.95;;;;;;;1.66;100.00;100441.84;6273908;28;20048;-76
2022/03/30 03:40:52;;;;;;;2.72;1.63;;;;;;;1.64;100.00;100441.91;6268877;28;20053;-77
2022/03/30 03:43:54;;;;;;;4.75;2.17;;;;;;;1.57;100.00;100445.50;6274059;28;20056;-77
2022/03/30 03:46:55;;;;;;;9.85;2.83;;;;;;;1.50;100.00;100443.94;6273695;28;20060;-76
2022/03/30 03:49:56;;;;;;;5.88;1.90;;;;;;;1.50;100.00;100443.94;6272872;28;20044;-76
2022/03/30 03:52:59;;;;;;;2.75;1.88;;;;;;;1.50;100.00;100441.34;6272158;28;20053;-75
2022/03/30 03:56:00;;;;;;;2.33;1.35;;;;;;;1.52;100.00;100437.81;6272471;28;20056;-76
2022/03/30 03:59:02;;;;;;;6.47;2.15;;;;;;;1.60;100.00;100436.81;6272102;28;20049;-76
2022/03/30 04:02:04;;;;;;;4.93;2.17;;;;;;;1.64;100.00;100435.88;6271726;28;20045;-76
2022/03/30 04:05:08;;;;;;;4.35;2.42;;;;;;;1.61;100.00;100431.59;6271968;28;20127;-77
2022/03/30 04:08:11;;;;;;;5.90;3.10;;;;;;;1.61;100.00;100439.38;6271988;28;20079;-75
2022/03/30 04:11:13;;;;;;;3.97;1.88;;;;;;;1.66;100.00;100436.69;6268330;28;20052;-76
2022/03/30 04:14:15;;;;;;;7.55;2.05;;;;;;;1.68;100.00;100440.06;6272356;28;20048;-75
2022/03/30 04:17:18;;;;;;;2.95;1.95;;;;;;;1.65;100.00;100441.00;6273201;28;20052;-76
2022/03/30 04:20:20;;;;;;;6.68;2.58;;;;;;;1.62;100.00;100442.81;6282709;28;20049;-77
2022/03/30 04:23:23;;;;;;;2.75;1.77;;;;;;;1.60;100.00;100421.28;6281357;28;20123;-76
2022/03/30 04:26:24;;;;;;;3.42;1.85;;;;;;;1.63;100.00;100416.88;6272766;28;20512;-76
2022/03/30 04:29:25;;;;;;;2.97;1.83;;;;;;;1.61;100.00;100408.28;6282629;28;20048;-76
2022/03/30 04:32:27;;;;;;;8.32;3.10;;;;;;;1.65;100.00;100409.94;6272211;28;20500;-76
2022/03/30 04:35:29;;;;;;;3.65;2.17;;;;;;;1.63;100.00;100401.31;6272968;28;20056;-76
2022/03/30 04:38:31;;;;;;;6.72;2.38;;;;;;;1.64;100.00;100402.22;6274250;28;20056;-77
2022/03/30 04:41:33;;;;;;;5.18;2.65;;;;;;;1.58;100.00;100403.16;6288881;28;20060;-76
2022/03/30 04:44:34;;;;;;;4.35;2.63;;;;;;;1.53;100.00;100407.59;6297405;28;20049;-76
2022/03/30 04:47:36;;;;;;;5.63;2.65;;;;;;;1.59;100.00;100406.59;6297704;28;20048;-76
2022/03/30 04:50:37;;;;;;;3.20;2.13;;;;;;;1.60;100.00;100408.34;6296698;28;20510;-76
2022/03/30 04:53:40;;;;;;;4.90;2.25;;;;;;;1.64;100.00;100408.25;6297503;28;20052;-75
2022/03/30 04:56:41;;;;;;;7.85;2.78;;;;;;;1.63;100.00;100395.31;6297449;28;20044;-74
2022/03/30 04:59:43;;;;;;;7.28;2.20;;;;;;;1.49;100.00;100390.44;6296814;28;20056;-77
2022/03/30 05:02:45;;;;;;;4.95;2.72;;;;;;;1.41;100.00;100388.03;6296758;28;20062;-75
2022/03/30 05:05:46;;;;;;;5.00;3.17;;;;;;;1.44;100.00;100387.94;6296732;28;20071;-76
2022/03/30 05:08:48;;;;;;;6.40;2.65;;;;;;;1.50;100.00;100393.00;6297038;28;20492;-76
2022/03/30 05:11:50;;;;;;;2.95;1.92;;;;;;;1.35;100.00;100395.91;6296261;28;20056;-75
2022/03/30 05:14:52;;;;;;;7.85;3.40;;;;;;;1.31;100.00;100398.59;6297000;28;20068;-76
2022/03/30 05:17:53;;;;;;;5.68;3.25;;;;;;;1.34;100.00;100404.56;6296666;28;20060;-76
2022/03/30 05:20:54;;;;;;;6.72;2.42;;;;;;;1.37;100.00;100414.88;6296023;28;20554;-76
2022/03/30 05:23:57;;;;;;;5.95;3.03;;;;;;;1.38;100.00;100410.53;6296685;28;20051;-76
2022/03/30 05:26:58;;;;;;;4.97;2.50;;;;;;;1.39;100.00;100407.06;6296718;28;20056;-76
2022/03/30 05:30:02;;;;;;;4.88;3.00;;;;;;;1.40;100.00;100398.41;6296249;28;20518;-76
2022/03/30 05:33:04;;;;;;;7.80;3.08;;;;;;;1.44;100.00;100393.13;6296238;28;20460;-76
2022/03/30 05:36:05;;;;;;;7.60;2.33;;;;;;;1.52;100.00;100395.53;6296103;28;20049;-75
2022/03/30 05:39:08;;;;;;;4.70;1.92;;;;;;;1.56;100.00;100399.78;6296354;28;20040;-75
2022/03/30 05:42:10;;;;;;;5.07;2.35;;;;;;;1.68;100.00;100396.94;6295804;28;20048;-76
2022/03/30 05:45:12;;;;;;;5.57;2.75;;;;;;;1.76;100.00;100400.16;6296356;28;20048;-76
2022/03/30 05:48:13;;;;;;;7.93;2.20;;;;;;;1.78;100.00;100398.41;6296492;28;20056;-75
2022/03/30 05:51:15;;;;;;;7.20;2.13;;;;;;;1.91;100.00;100395.53;6295691;28;20052;-75
2022/03/30 05:54:18;;;;;;;7.80;2.92;;;;;;;2.00;100.00;100391.00;6296295;28;20392;-76
2022/03/30 05:57:21;;;;;;;4.18;2.60;;;;;;;2.09;100.00;100395.09;6296290;28;20040;-75
2022/03/30 06:00:23;;;;;;;3.00;1.80;;;;;;;2.16;100.00;100399.22;6286423;28;20045;-75
2022/03/30 06:03:24;;;;;;;8.57;3.03;;;;;;;2.14;100.00;100400.19;6280407;28;20044;-76
2022/03/30 06:06:25;;;;;;;10.82;3.95;;;;;;;2.14;100.00;100401.03;6295677;28;20051;-75
2022/03/30 06:09:28;;;;;;;3.28;2.45;;;;;;;2.12;100.00;100415.75;6287943;28;20500;-76
2022/03/30 06:12:29;;;;;;;7.88;3.08;;;;;;;2.11;100.00;100419.22;6280141;28;20453;-76
2022/03/30 06:15:32;;;;;;;5.00;2.97;;;;;;;2.19;100.00;100413.88;6282745;28;20067;-76
2022/03/30 06:18:34;;;;;;;3.63;2.42;;;;;;;2.32;100.00;100422.19;6273386;28;20053;-74
2022/03/30 06:21:36;;;;;;;9.50;3.05;;;;;;;2.37;100.00;100420.34;6267016;28;20056;-75
2022/03/30 06:24:40;;;;;;;6.03;2.42;;;;;;;2.33;100.00;100416.13;6273474;28;20052;-74
2022/03/30 06:27:42;;;;;;;2.60;1.90;;;;;;;2.34;100.00;100417.81;6267345;28;20122;-74
2022/03/30 06:30:43;;;;;;;7.05;2.30;;;;;;;2.37;100.00;100416.00;6265372;28;20048;-74
2022/03/30 06:33:45;;;;;;;8.23;2.00;;;;;;;2.53;100.00;100408.69;6259064;28;20045;-74
2022/03/30 06:36:46;;;;;;;11.35;3.30;;;;;;;2.61;100.00;100406.75;6278262;28;20052;-74
2022/03/30 06:39:49;;;;;;;8.18;3.58;;;;;;;2.64;100.00;100409.28;6268073;28;20048;-74
2022/03/30 06:42:53;;;;;;;5.05;2.85;;;;;;;2.79;100.00;100411.44;6282872;28;20419;-74
2022/03/30 06:45:54;;;;;;;5.90;3.25;;;;;;;2.92;100.00;100409.38;6279641;28;20507;-74
2022/03/30 06:48:56;;;;;;;6.07;2.92;;;;;;;3.05;100.00;100396.91;6290014;28;20048;-74
2022/03/30 06:51:57;;;;;;;10.00;3.53;;;;;;;3.16;100.00;100404.38;6294163;28;20056;-74
2022/03/30 06:55:00;;;;;;;4.70;2.70;;;;;;;3.16;100.00;100407.84;6274185;28;20041;-74
2022/03/30 06:58:01;;;;;;;9.88;2.63;;;;;;;3.25;100.00;100404.97;6271104;28;20053;-74
2022/03/30 07:01:03;;;;;;;4.28;2.90;;;;;;;3.40;100.00;100400.22;6273549;28;20053;-75
2022/03/30 07:04:05;;;;;;;6.60;2.75;;;;;;;3.60;100.00;100395.31;6273792;28;20049;-74
2022/03/30 07:10:27;;;;;;;5.68;1.85;;;;;;;3.81;100.00;100392.06;6242207;28;20110;-74
2022/03/30 07:13:28;;;;;;;5.75;2.08;;;;;;;3.95;100.00;100389.03;6282711;28;20041;-74
2022/03/30 07:16:30;;;;;;;6.90;2.65;;;;;;;4.02;100.00;100393.09;6272695;28;20685;-74
2022/03/30 07:19:31;;;;;;;6.07;1.90;;;;;;;4.15;100.00;100387.50;6277199;28;20585;-75
2022/03/30 07:22:33;;;;;;;2.90;1.98;;;;;;;4.24;100.00;100385.47;6288414;28;20045;-74
2022/03/30 07:25:36;;;;;;;4.80;1.73;;;;;;;4.25;100.00;100391.50;6274236;28;20497;-74
2022/03/30 07:28:38;;;;;;;3.13;1.40;;;;;;;4.39;100.00;100378.03;6274354;28;20057;-74
2022/03/30 07:31:39;;;;;;;3.45;1.85;;;;;;;4.53;100.00;100376.66;6270180;28;20056;-74
2022/03/30 07:34:40;;;;;;;6.47;1.88;;;;;;;4.62;100.00;100388.50;6287510;28;21320;-74
2022/03/30 07:37:43;;;;;;;3.10;1.45;;;;;;;4.66;100.00;100379.69;6282726;28;20049;-74
2022/03/30 07:40:48;;;;;;;3.75;1.75;;;;;;;4.74;100.00;100376.84;6279360;28;20037;-74
2022/03/30 07:43:49;;;;;;;3.00;1.10;;;;;;;4.62;100.00;100383.31;6277940;28;20048;-73
2022/03/30 07:46:50;;;;;;;2.38;0.68;;;;;;;4.61;100.00;100378.16;6273872;28;20044;-74
2022/03/30 07:49:52;;;;;;;1.35;0.90;;;;;;;4.75;100.00;100375.91;6273295;28;20052;-74
2022/03/30 07:52:54;;;;;;;5.72;1.45;;;;;;;4.86;100.00;100378.13;6273235;28;20053;-74
2022/03/30 07:55:56;;;;;;;2.92;1.48;;;;;;;4.90;100.00;100377.97;6273634;28;20052;-74
2022/03/30 07:58:59;;;;;;;2.17;1.20;;;;;;;4.82;100.00;100374.81;6273209;28;20053;-74
2022/03/30 08:02:01;;;;;;;10.02;1.55;;;;;;;4.83;100.00;100373.91;6273144;28;20063;-75
2022/03/30 08:05:02;;;;;;;8.68;2.03;;;;;;;5.07;100.00;100369.56;6272877;28;20045;-74
2022/03/30 08:08:06;;;;;;;1.88;0.70;;;;;;;5.14;100.00;100373.66;6273085;28;20512;-74
2022/03/30 08:11:09;;;;;;;4.45;1.23;;;;;;;5.24;100.00;100371.53;6272603;28;20052;-74
2022/03/30 08:14:11;;;;;;;4.68;1.67;;;;;;;5.34;100.00;100371.13;6273192;28;20060;-75
2022/03/30 08:17:13;;;;;;;3.88;1.38;;;;;;;5.31;100.00;100365.19;6273139;28;20128;-73
2022/03/30 08:22:25;;;;;;;4.25;1.90;;;;;;;5.31;100.00;100368.66;6272650;28;20045;-75
2022/03/30 08:23:36;;;;;;;6.03;1.55;;;;;;;5.32;100.00;100359.94;6272416;28;20137;-74
2022/03/30 08:26:41;;;;;;;7.22;1.80;;;;;;;5.58;100.00;100365.88;6272987;28;20052;-74
2022/03/30 08:29:44;;;;;;;1.50;1.05;;;;;;;5.70;100.00;100368.00;6273309;28;20083;-74
2022/03/30 08:32:45;;;;;;;1.92;1.55;;;;;;;5.70;100.00;100368.00;6283691;28;20055;-74
2022/03/30 08:35:46;;;;;;;4.80;1.38;;;;;;;5.82;100.00;100364.09;6276131;28;20063;-75
2022/03/30 08:38:48;;;;;;;6.25;1.55;;;;;;;5.97;100.00;100365.25;6289277;28;20048;-75
2022/03/30 08:41:51;;;;;;;3.03;1.60;;;;;;;5.95;100.00;100362.72;6276893;28;20049;-74
2022/03/30 08:44:52;;;;;;;4.65;1.42;;;;;;;6.03;100.00;100355.41;6271489;28;20048;-74
2022/03/30 08:47:53;;;;;;;2.20;0.95;;;;;;;6.04;100.00;100351.03;6280223;28;20041;-75
2022/03/30 08:50:55;;;;;;;10.50;1.33;;;;;;;6.09;100.00;100359.56;6279505;28;20052;-73
2022/03/30 08:53:57;;;;;;;9.75;0.80;;;;;;;6.16;100.00;100363.59;6281353;28;20570;-75
2022/03/30 08:57:00;;;;;;;4.18;0.75;;;;;;;6.21;100.00;100359.03;6271904;28;20179;-76
2022/03/30 09:00:06;;;;;;;2.03;1.27;;;;;;;6.31;100.00;100355.13;6271989;28;20057;-75
2022/03/30 09:03:08;;;;;;;1.92;1.20;;;;;;;6.43;100.00;100361.59;6271759;28;20048;-76
2022/03/30 09:06:13;;;;;;;5.63;1.45;;;;;;;6.43;99.54;100350.28;6272200;28;20045;-74
2022/03/30 09:09:18;;;;;;;1.00;0.82;;;;;;;6.43;100.00;100352.91;6271838;28;20504;-74
2022/03/30 09:12:26;;;;;;;2.72;1.17;;;;;;;6.33;100.00;100342.84;6270258;28;20411;-74
2022/03/30 09:15:29;;;;;;;4.22;1.67;;;;;;;6.06;100.00;100347.47;6271829;28;20049;-75
2022/03/30 09:18:30;;;;;;;2.50;0.75;;;;;;;6.18;99.40;100343.50;6271623;28;20056;-74
2022/03/30 09:21:43;;;;;;;2.55;1.38;;;;;;;6.31;98.33;100339.47;6271055;28;20056;-73
2022/03/30 09:24:45;;;;;;;3.65;1.55;;;;;;;6.08;98.32;100336.97;6271643;28;20403;-76
2022/03/30 09:27:47;;;;;;;3.72;2.15;;;;;;;6.40;98.05;100340.81;6271793;28;20488;-74
2022/03/30 09:30:50;;;;;;;1.85;0.80;;;;;;;6.64;98.64;100332.88;6270692;28;20488;-74
2022/03/30 09:33:53;;;;;;;5.00;0.88;;;;;;;6.85;97.45;100332.75;6271791;28;20051;-73
2022/03/30 09:36:54;;;;;;;3.17;0.77;;;;;;;7.07;90.60;100330.03;6271327;28;20044;-74
2022/03/30 09:39:55;;;;;;;1.63;1.20;;;;;;;7.18;90.98;100326.94;6270946;28;20056;-74
2022/03/30 09:43:14;;;;;;;4.28;0.82;;;;;;;7.33;86.98;100333.22;6271212;28;20045;-76
2022/03/30 09:46:16;;;;;;;3.10;0.93;;;;;;;7.43;88.65;100333.63;6271146;28;20045;-74
2022/03/30 09:49:32;;;;;;;1.85;1.00;;;;;;;7.53;85.45;100335.72;6271177;28;20063;-75
2022/03/30 09:52:33;;;;;;;3.67;1.00;;;;;;;7.35;84.46;100326.97;6270725;28;20515;-75
2022/03/30 09:55:35;;;;;;;1.92;1.40;;;;;;;7.29;85.92;100332.50;6271620;28;20088;-74
2022/03/30 09:58:39;;;;;;;1.73;0.85;;;;;;;7.45;87.70;100334.38;6271142;28;20056;-75
2022/03/30 10:01:45;;;;;;;2.83;0.85;;;;;;;7.45;86.05;100322.19;6270278;28;20076;-75
2022/03/30 10:04:47;;;;;;;1.65;0.80;;;;;;;7.44;86.97;100325.69;6271277;28;20064;-75
2022/03/30 10:07:50;;;;;;;4.13;0.88;;;;;;;7.63;85.24;100323.09;6270937;28;20053;-75
2022/03/30 10:10:52;;;;;;;9.27;1.63;;;;;;;7.58;85.06;100318.03;6270724;28;20131;-73
2022/03/30 10:13:56;;;;;;;3.25;0.93;;;;;;;7.61;83.49;100314.44;6270807;28;20408;-74
2022/03/30 10:16:57;;;;;;;1.75;1.30;;;;;;;7.59;83.04;100311.91;6271183;28;20041;-75
2022/03/30 10:20:01;;;;;;;1.88;0.82;;;;;;;7.64;86.19;100314.31;6270209;28;20500;-75
2022/03/30 10:23:20;;;;;;;1.67;0.80;;;;;;;7.70;82.85;100311.38;6272456;28;20060;-74
2022/03/30 10:26:35;;;;;;;3.00;0.70;;;;;;;7.61;84.73;100298.75;6275589;28;20504;-74
2022/03/30 10:29:38;;;;;;;0.80;0.70;;;;;;;7.73;85.95;100307.78;6272733;28;20133;-73
2022/03/30 10:32:41;;;;;;;4.18;1.30;;;;;;;7.71;87.62;100297.38;6276847;28;20147;-75
2022/03/30 10:35:46;;;;;;;5.18;0.90;;;;;;;7.67;85.33;100302.84;6284453;28;20408;-73
2022/03/30 10:39:24;;;;;;;1.80;1.00;;;;;;;7.41;83.85;100291.88;6275761;28;20052;-75
2022/03/30 10:42:26;;;;;;;6.43;1.42;;;;;;;7.80;85.64;100289.09;6291859;28;20056;-74
2022/03/30 10:45:33;;;;;;;2.35;1.02;;;;;;;7.85;85.42;100286.25;6285139;28;20040;-75
2022/03/30 10:48:39;;;;;;;2.65;1.25;;;;;;;8.01;84.54;100289.81;6277070;28;20049;-74
2022/03/30 10:51:40;;;;;;;3.38;1.00;;;;;;;8.07;81.38;100279.03;6288971;28;20524;-75
2022/03/30 10:54:42;;;;;;;5.65;1.13;;;;;;;8.19;82.37;100274.94;6286205;28;20055;-74
2022/03/30 10:57:44;;;;;;;5.88;0.93;;;;;;;8.19;81.89;100274.94;6299574;28;20071;-74
2022/03/30 11:00:47;;;;;;;5.80;1.38;;;;;;;8.27;82.67;100259.69;6299267;28;20049;-75
2022/03/30 11:03:56;;;;;;;1.95;0.88;;;;;;;8.20;81.11;100267.94;6286741;28;20492;-74
2022/03/30 11:07:40;;;;;;;2.78;0.82;;;;;;;8.13;83.58;100270.03;6299692;28;20055;-73
2022/03/30 11:10:47;;;;;;;2.08;1.05;;;;;;;8.28;81.13;100260.53;6298900;28;20063;-74
2022/03/30 11:13:48;;;;;;;1.48;0.80;;;;;;;8.34;80.50;100260.22;6299595;28;20131;-74
2022/03/30 11:16:53;;;;;;;2.20;1.27;;;;;;;8.32;80.18;100262.09;6299516;28;20078;-74
2022/03/30 11:20:08;;;;;;;4.53;1.27;;;;;;;8.31;79.38;100256.00;6279924;28;20055;-75
2022/03/30 11:23:22;;;;;;;6.13;1.60;;;;;;;8.07;80.90;100259.84;6280781;28;20044;-75
2022/03/30 11:26:23;;;;;;;1.92;1.02;;;;;;;7.88;80.66;100257.31;6282386;28;20041;-74
2022/03/30 11:29:48;;;;;;;7.65;2.63;;;;;;;7.95;81.24;100265.69;6273917;28;20052;-74
2022/03/30 11:33:21;;;;;;;2.22;1.10;;;;;;;7.92;82.64;100258.03;6273935;28;20049;-74
2022/03/30 11:36:25;;;;;;;4.60;2.00;;;;;;;7.97;82.06;100261.25;6273424;28;20048;-74
2022/03/30 11:39:33;;;;;;;3.17;1.00;;;;;;;7.86;81.76;100264.41;6273953;28;20064;-74
2022/03/30 11:42:36;;;;;;;0.70;0.70;;;;;;;7.70;81.45;100258.25;6298830;28;20056;-74
2022/03/30 11:45:38;;;;;;;1.65;0.80;;;;;;;7.73;80.08;100260.72;6298923;28;20049;-73
2022/03/30 11:48:41;;;;;;;1.02;0.77;;;;;;;7.72;81.27;100259.88;6298997;28;20554;-74
2022/03/30 11:51:42;;;;;;;4.70;1.38;;;;;;;7.80;84.57;100259.47;6297794;28;20067;-73
2022/03/30 11:54:47;;;;;;;1.40;0.85;;;;;;;7.75;80.73;100244.00;6290799;28;20051;-74
2022/03/30 11:57:51;;;;;;;4.70;1.08;;;;;;;7.57;83.77;100255.38;6273598;28;20124;-74
2022/03/30 12:00:53;;;;;;;3.42;1.23;;;;;;;7.53;83.87;100252.06;6270339;28;20131;-74
2022/03/30 12:03:56;;;;;;;3.95;1.30;;;;;;;7.62;84.21;100242.91;6285827;28;20056;-75
2022/03/30 12:06:58;;;;;;;0.77;0.47;;;;;;;7.66;84.67;100248.84;6283325;28;20045;-75
2022/03/30 12:09:59;;;;;;;4.30;0.80;;;;;;;7.57;84.01;100251.00;6285848;28;20056;-75
2022/03/30 12:13:01;;;;;;;2.63;1.00;;;;;;;7.54;85.50;100251.16;6272652;28;20639;-75
2022/03/30 12:16:05;;;;;;;3.45;1.00;;;;;;;7.47;88.27;100247.13;6273632;28;20048;-75
2022/03/30 12:19:08;;;;;;;1.70;0.82;;;;;;;7.57;88.30;100250.16;6273012;28;20451;-76
2022/03/30 12:22:09;;;;;;;5.53;0.98;;;;;;;7.52;86.56;100242.53;6273000;28;20063;-76
2022/03/30 12:25:17;;;;;;;5.35;1.55;;;;;;;7.52;87.32;100247.75;6273081;28;20049;-77
2022/03/30 12:28:28;;;;;;;5.78;1.13;;;;;;;7.78;85.55;100249.09;6272962;28;20048;-79
2022/03/30 12:31:33;;;;;;;0.88;0.80;;;;;;;7.77;85.13;100249.19;6280364;28;20504;-75
2022/03/30 12:34:36;;;;;;;6.00;0.88;;;;;;;7.68;84.46;100247.03;6273252;28;20045;-77
2022/03/30 12:37:37;;;;;;;4.38;1.10;;;;;;;7.73;83.51;100237.19;6272634;28;20060;-77
2022/03/30 12:40:41;;;;;;;1.50;0.70;;;;;;;7.79;86.49;100232.47;6269722;28;20504;-77
2022/03/30 12:43:44;;;;;;;2.30;0.88;;;;;;;7.57;85.40;100231.84;6279678;28;20049;-78
2022/03/30 12:46:46;;;;;;;2.72;0.98;;;;;;;7.66;88.58;100223.53;6284014;28;20051;-75
2022/03/30 12:49:52;;;;;;;3.42;1.20;;;;;;;7.72;86.43;100222.38;6273507;28;20049;-78
2022/03/30 12:52:55;;;;;;;2.95;0.80;;;;;;;7.63;86.09;100218.47;6257267;28;20393;-77
2022/03/30 12:55:56;;;;;;;4.28;1.35;;;;;;;7.71;84.15;100213.69;6272364;28;20049;-77
2022/03/30 12:59:00;;;;;;;0.50;0.40;;;;;;;7.84;85.93;100209.53;6270869;28;20051;-77
2022/03/30 13:02:20;;;;;;;2.17;1.10;;;;;;;7.81;84.98;100208.84;6288845;28;20101;-76
2022/03/30 13:05:24;;;;;;;2.13;1.13;;;;;;;7.94;86.83;100209.91;6290629;28;20053;-77
2022/03/30 13:08:25;;;;;;;1.88;0.73;;;;;;;7.81;86.39;100207.09;6272227;28;20163;-77
2022/03/30 13:11:27;;;;;;;3.90;0.80;;;;;;;7.86;82.80;100206.88;6271721;28;20049;-77
2022/03/30 13:14:28;;;;;;;1.95;0.93;;;;;;;7.86;84.89;100202.47;6266746;28;20049;-76
2022/03/30 13:17:29;;;;;;;2.38;0.88;;;;;;;7.83;83.37;100200.00;6275182;28;20504;-77
2022/03/30 13:20:34;;;;;;;3.63;1.13;;;;;;;7.80;85.29;100200.16;6275138;28;20052;-77
2022/03/30 13:23:38;;;;;;;4.65;0.98;;;;;;;7.76;83.19;100196.00;6279440;28;20111;-77
2022/03/30 13:26:41;;;;;;;1.77;0.98;;;;;;;7.63;82.21;100198.41;6297957;28;20048;-78
2022/03/30 13:29:43;;;;;;;3.25;1.52;;;;;;;7.72;84.56;100194.50;6273805;28;20107;-77
2022/03/30 13:32:45;;;;;;;0.82;0.75;;;;;;;7.56;83.94;100188.31;6282515;28;20044;-77
2022/03/30 13:35:48;;;;;;;1.38;0.80;;;;;;;7.71;84.16;100189.31;6274784;28;20045;-77
2022/03/30 13:38:52;;;;;;;4.53;1.10;;;;;;;7.77;86.46;100181.19;6274972;28;20519;-77
2022/03/30 13:41:53;;;;;;;1.95;1.00;;;;;;;7.75;83.65;100189.09;6273838;28;20045;-77
2022/03/30 13:44:55;;;;;;;1.92;1.10;;;;;;;7.77;83.79;100171.56;6284562;28;20040;-76
2022/03/30 13:47:56;;;;;;;5.10;1.02;;;;;;;7.74;85.11;100174.31;6286567;28;20045;-76
2022/03/30 13:51:00;;;;;;;1.75;0.93;;;;;;;7.76;84.72;100172.47;6287912;28;20519;-77
2022/03/30 13:54:01;;;;;;;3.25;1.40;;;;;;;7.70;84.71;100175.41;6277221;28;20049;-76
2022/03/30 13:57:03;;;;;;;1.40;0.90;;;;;;;7.53;84.83;100173.63;6274684;28;20052;-77
2022/03/30 14:00:08;;;;;;;1.27;1.15;;;;;;;7.61;85.97;100170.63;6279810;28;20049;-77
2022/03/30 14:03:09;;;;;;;0.90;0.70;;;;;;;7.68;85.16;100171.19;6280941;28;20048;-76
2022/03/30 14:06:12;;;;;;;1.15;0.75;;;;;;;7.57;85.15;100164.69;6295762;28;20168;-76
2022/03/30 14:09:13;;;;;;;4.95;1.83;;;;;;;7.54;85.28;100162.25;6285319;28;20055;-77
2022/03/30 14:12:14;;;;;;;1.85;1.20;;;;;;;7.49;86.42;100166.84;6292319;28;20044;-76
2022/03/30 14:15:16;;;;;;;1.50;1.40;;;;;;;7.54;85.38;100161.38;6294429;28;20044;-77
2022/03/30 14:18:17;;;;;;;2.85;1.38;;;;;;;7.44;86.30;100165.38;6278934;28;20041;-76
2022/03/30 14:21:20;;;;;;;1.92;1.08;;;;;;;7.44;88.10;100157.53;6278615;28;20420;-77
2022/03/30 14:24:22;;;;;;;2.63;1.20;;;;;;;7.46;88.98;100160.94;6278419;28;20053;-77